sensor_id;sensor_type;location;lat;lon;timestamp;P1;durP1;ratioP1;P2;durP2;ratioP2
11743;SDS011;5929;51.906;7.674;2023-02-15T00:00:28;27.83;;;16.05;;
11743;SDS011;5929;51.906;7.674;2023-02-15T00:02:55;26.83;;;16.13;;
11743;SDS011;5929;51.906;7.674;2023-02-15T00:05:22;25.60;;;16.10;;
11743;SDS011;5929;51.906;7.674;2023-02-15T00:07:48;25.67;;;16.23;;
11743;SDS011;5929;51.906;7.674;2023-02-15T00:10:15;23.52;;;15.38;;
11743;SDS011;5929;51.906;7.674;2023-02-15T00:12:42;25.88;;;16.10;;
11743;SDS011;5929;51.906;7.674;2023-02-15T00:15:09;24.58;;;16.17;;
11743;SDS011;5929;51.906;7.674;2023-02-15T00:17:39;27.40;;;15.63;;
11743;SDS011;5929;51.906;7.674;2023-02-15T00:20:06;25.88;;;15.10;;
11743;SDS011;5929;51.906;7.674;2023-02-15T00:22:33;22.13;;;14.00;;
11743;SDS011;5929;51.906;7.674;2023-02-15T00:25:00;22.92;;;15.38;;
11743;SDS011;5929;51.906;7.674;2023-02-15T00:27:27;27.08;;;15.85;;
11743;SDS011;5929;51.906;7.674;2023-02-15T00:29:54;26.83;;;15.77;;
11743;SDS011;5929;51.906;7.674;2023-02-15T00:32:21;25.63;;;16.30;;
11743;SDS011;5929;51.906;7.674;2023-02-15T00:34:49;25.38;;;16.40;;
11743;SDS011;5929;51.906;7.674;2023-02-15T00:37:19;29.83;;;16.65;;
11743;SDS011;5929;51.906;7.674;2023-02-15T00:39:46;26.25;;;16.08;;
11743;SDS011;5929;51.906;7.674;2023-02-15T00:42:13;27.27;;;16.48;;
11743;SDS011;5929;51.906;7.674;2023-02-15T00:44:42;26.65;;;16.33;;
11743;SDS011;5929;51.906;7.674;2023-02-15T00:47:09;25.60;;;16.58;;
11743;SDS011;5929;51.906;7.674;2023-02-15T00:49:36;29.17;;;16.40;;
11743;SDS011;5929;51.906;7.674;2023-02-15T00:52:04;24.48;;;15.95;;
11743;SDS011;5929;51.906;7.674;2023-02-15T00:54:34;27.00;;;16.75;;
11743;SDS011;5929;51.906;7.674;2023-02-15T00:57:01;27.05;;;16.67;;
11743;SDS011;5929;51.906;7.674;2023-02-15T00:59:27;25.50;;;17.17;;
11743;SDS011;5929;51.906;7.674;2023-02-15T01:01:54;30.70;;;16.73;;
11743;SDS011;5929;51.906;7.674;2023-02-15T01:04:23;26.25;;;16.75;;
11743;SDS011;5929;51.906;7.674;2023-02-15T01:06:50;24.70;;;16.42;;
11743;SDS011;5929;51.906;7.674;2023-02-15T01:09:18;25.48;;;16.45;;
11743;SDS011;5929;51.906;7.674;2023-02-15T01:11:45;28.15;;;17.27;;
11743;SDS011;5929;51.906;7.674;2023-02-15T01:14:13;30.92;;;17.55;;
11743;SDS011;5929;51.906;7.674;2023-02-15T01:16:40;26.48;;;17.38;;
11743;SDS011;5929;51.906;7.674;2023-02-15T01:19:07;26.25;;;17.15;;
11743;SDS011;5929;51.906;7.674;2023-02-15T01:21:34;25.75;;;16.65;;
11743;SDS011;5929;51.906;7.674;2023-02-15T01:24:00;28.33;;;17.02;;
11743;SDS011;5929;51.906;7.674;2023-02-15T01:26:29;25.80;;;16.35;;
11743;SDS011;5929;51.906;7.674;2023-02-15T01:28:55;28.58;;;17.63;;
11743;SDS011;5929;51.906;7.674;2023-02-15T01:31:22;24.58;;;17.02;;
11743;SDS011;5929;51.906;7.674;2023-02-15T01:33:49;31.80;;;16.45;;
11743;SDS011;5929;51.906;7.674;2023-02-15T01:36:18;26.25;;;15.93;;
11743;SDS011;5929;51.906;7.674;2023-02-15T01:38:45;25.83;;;15.85;;
11743;SDS011;5929;51.906;7.674;2023-02-15T01:41:12;26.45;;;16.17;;
11743;SDS011;5929;51.906;7.674;2023-02-15T01:43:57;26.60;;;16.10;;
11743;SDS011;5929;51.906;7.674;2023-02-15T01:46:26;28.05;;;15.85;;
11743;SDS011;5929;51.906;7.674;2023-02-15T01:48:59;24.23;;;16.08;;
11743;SDS011;5929;51.906;7.674;2023-02-15T01:51:31;23.60;;;16.25;;
11743;SDS011;5929;51.906;7.674;2023-02-15T01:54:01;28.58;;;16.60;;
11743;SDS011;5929;51.906;7.674;2023-02-15T01:56:32;27.60;;;17.75;;
11743;SDS011;5929;51.906;7.674;2023-02-15T01:59:04;28.90;;;17.25;;
11743;SDS011;5929;51.906;7.674;2023-02-15T02:01:35;31.88;;;19.48;;
11743;SDS011;5929;51.906;7.674;2023-02-15T02:04:05;28.27;;;17.95;;
11743;SDS011;5929;51.906;7.674;2023-02-15T02:06:38;30.67;;;18.20;;
11743;SDS011;5929;51.906;7.674;2023-02-15T02:09:06;31.10;;;18.73;;
11743;SDS011;5929;51.906;7.674;2023-02-15T02:11:33;30.13;;;19.60;;
11743;SDS011;5929;51.906;7.674;2023-02-15T02:14:00;29.67;;;19.42;;
11743;SDS011;5929;51.906;7.674;2023-02-15T02:16:30;29.48;;;18.20;;
11743;SDS011;5929;51.906;7.674;2023-02-15T02:19:10;29.15;;;17.90;;
11743;SDS011;5929;51.906;7.674;2023-02-15T02:22:23;29.92;;;18.95;;
11743;SDS011;5929;51.906;7.674;2023-02-15T02:25:18;29.08;;;18.05;;
11743;SDS011;5929;51.906;7.674;2023-02-15T02:28:02;35.38;;;18.63;;
11743;SDS011;5929;51.906;7.674;2023-02-15T02:33:40;32.55;;;18.73;;
11743;SDS011;5929;51.906;7.674;2023-02-15T02:36:19;35.28;;;20.13;;
11743;SDS011;5929;51.906;7.674;2023-02-15T02:39:03;34.10;;;19.92;;
11743;SDS011;5929;51.906;7.674;2023-02-15T02:41:37;31.33;;;19.35;;
11743;SDS011;5929;51.906;7.674;2023-02-15T02:44:12;35.13;;;19.02;;
11743;SDS011;5929;51.906;7.674;2023-02-15T02:46:48;31.10;;;18.77;;
11743;SDS011;5929;51.906;7.674;2023-02-15T02:49:28;34.30;;;19.75;;
11743;SDS011;5929;51.906;7.674;2023-02-15T02:51:59;32.95;;;18.95;;
11743;SDS011;5929;51.906;7.674;2023-02-15T02:54:27;35.13;;;21.30;;
11743;SDS011;5929;51.906;7.674;2023-02-15T02:56:54;33.58;;;19.42;;
11743;SDS011;5929;51.906;7.674;2023-02-15T02:59:25;36.28;;;20.67;;
11743;SDS011;5929;51.906;7.674;2023-02-15T03:01:57;31.83;;;20.02;;
11743;SDS011;5929;51.906;7.674;2023-02-15T03:04:31;33.72;;;19.65;;
11743;SDS011;5929;51.906;7.674;2023-02-15T03:07:02;32.70;;;19.55;;
11743;SDS011;5929;51.906;7.674;2023-02-15T03:09:31;37.38;;;20.35;;
11743;SDS011;5929;51.906;7.674;2023-02-15T03:12:07;39.13;;;22.58;;
11743;SDS011;5929;51.906;7.674;2023-02-15T03:14:36;39.35;;;22.08;;
11743;SDS011;5929;51.906;7.674;2023-02-15T03:17:04;44.35;;;22.27;;
11743;SDS011;5929;51.906;7.674;2023-02-15T03:19:35;41.28;;;22.23;;
11743;SDS011;5929;51.906;7.674;2023-02-15T03:22:04;37.50;;;21.38;;
11743;SDS011;5929;51.906;7.674;2023-02-15T03:24:35;36.38;;;21.02;;
11743;SDS011;5929;51.906;7.674;2023-02-15T03:27:06;37.78;;;21.33;;
11743;SDS011;5929;51.906;7.674;2023-02-15T03:29:36;35.75;;;21.05;;
11743;SDS011;5929;51.906;7.674;2023-02-15T03:32:04;40.58;;;20.85;;
11743;SDS011;5929;51.906;7.674;2023-02-15T03:34:35;35.78;;;19.85;;
11743;SDS011;5929;51.906;7.674;2023-02-15T03:37:04;35.80;;;20.83;;
11743;SDS011;5929;51.906;7.674;2023-02-15T03:39:38;38.05;;;22.58;;
11743;SDS011;5929;51.906;7.674;2023-02-15T03:42:12;40.92;;;23.33;;
11743;SDS011;5929;51.906;7.674;2023-02-15T03:44:46;38.00;;;22.13;;
11743;SDS011;5929;51.906;7.674;2023-02-15T03:47:19;37.97;;;21.15;;
11743;SDS011;5929;51.906;7.674;2023-02-15T03:49:52;36.38;;;21.52;;
11743;SDS011;5929;51.906;7.674;2023-02-15T03:52:22;36.63;;;21.13;;
11743;SDS011;5929;51.906;7.674;2023-02-15T03:54:52;34.55;;;21.17;;
11743;SDS011;5929;51.906;7.674;2023-02-15T03:57:20;41.58;;;22.10;;
11743;SDS011;5929;51.906;7.674;2023-02-15T04:00:09;37.33;;;21.52;;
11743;SDS011;5929;51.906;7.674;2023-02-15T04:03:04;36.42;;;20.17;;
11743;SDS011;5929;51.906;7.674;2023-02-15T04:05:47;35.80;;;21.00;;
11743;SDS011;5929;51.906;7.674;2023-02-15T04:08:14;37.80;;;21.33;;
11743;SDS011;5929;51.906;7.674;2023-02-15T04:10:41;33.83;;;20.30;;
11743;SDS011;5929;51.906;7.674;2023-02-15T04:13:20;35.50;;;19.73;;
11743;SDS011;5929;51.906;7.674;2023-02-15T04:15:48;35.05;;;21.00;;
11743;SDS011;5929;51.906;7.674;2023-02-15T04:18:30;35.50;;;20.05;;
11743;SDS011;5929;51.906;7.674;2023-02-15T04:21:16;40.63;;;19.92;;
11743;SDS011;5929;51.906;7.674;2023-02-15T04:24:00;35.30;;;20.65;;
11743;SDS011;5929;51.906;7.674;2023-02-15T04:26:45;32.55;;;18.17;;
11743;SDS011;5929;51.906;7.674;2023-02-15T04:29:12;33.58;;;19.30;;
11743;SDS011;5929;51.906;7.674;2023-02-15T04:31:39;33.28;;;18.15;;
11743;SDS011;5929;51.906;7.674;2023-02-15T04:34:07;30.90;;;18.20;;
11743;SDS011;5929;51.906;7.674;2023-02-15T04:36:36;34.22;;;19.50;;
11743;SDS011;5929;51.906;7.674;2023-02-15T04:39:03;39.75;;;20.67;;
11743;SDS011;5929;51.906;7.674;2023-02-15T04:41:30;33.15;;;18.70;;
11743;SDS011;5929;51.906;7.674;2023-02-15T04:43:57;33.35;;;18.88;;
11743;SDS011;5929;51.906;7.674;2023-02-15T04:46:24;32.72;;;19.92;;
11743;SDS011;5929;51.906;7.674;2023-02-15T04:48:51;31.38;;;18.58;;
11743;SDS011;5929;51.906;7.674;2023-02-15T04:51:18;32.05;;;18.80;;
11743;SDS011;5929;51.906;7.674;2023-02-15T04:53:46;35.95;;;20.00;;
11743;SDS011;5929;51.906;7.674;2023-02-15T04:56:13;36.10;;;20.75;;
11743;SDS011;5929;51.906;7.674;2023-02-15T04:58:40;34.45;;;19.48;;
11743;SDS011;5929;51.906;7.674;2023-02-15T05:01:07;36.78;;;19.42;;
11743;SDS011;5929;51.906;7.674;2023-02-15T05:03:34;32.00;;;19.33;;
11743;SDS011;5929;51.906;7.674;2023-02-15T05:06:01;36.33;;;20.10;;
11743;SDS011;5929;51.906;7.674;2023-02-15T05:08:29;35.20;;;19.23;;
11743;SDS011;5929;51.906;7.674;2023-02-15T05:10:57;33.17;;;19.35;;
11743;SDS011;5929;51.906;7.674;2023-02-15T05:13:24;35.75;;;19.73;;
11743;SDS011;5929;51.906;7.674;2023-02-15T05:15:51;35.00;;;19.77;;
11743;SDS011;5929;51.906;7.674;2023-02-15T05:18:19;33.25;;;19.02;;
11743;SDS011;5929;51.906;7.674;2023-02-15T05:20:47;34.58;;;19.58;;
11743;SDS011;5929;51.906;7.674;2023-02-15T05:23:14;34.63;;;19.27;;
11743;SDS011;5929;51.906;7.674;2023-02-15T05:25:45;37.40;;;20.63;;
11743;SDS011;5929;51.906;7.674;2023-02-15T05:28:32;36.13;;;20.63;;
11743;SDS011;5929;51.906;7.674;2023-02-15T05:31:00;37.45;;;19.95;;
11743;SDS011;5929;51.906;7.674;2023-02-15T05:33:32;36.95;;;20.83;;
11743;SDS011;5929;51.906;7.674;2023-02-15T05:35:59;35.10;;;20.42;;
11743;SDS011;5929;51.906;7.674;2023-02-15T05:38:26;38.40;;;21.85;;
11743;SDS011;5929;51.906;7.674;2023-02-15T05:40:53;36.40;;;21.30;;
11743;SDS011;5929;51.906;7.674;2023-02-15T05:43:20;38.50;;;21.83;;
11743;SDS011;5929;51.906;7.674;2023-02-15T05:45:49;37.20;;;21.08;;
11743;SDS011;5929;51.906;7.674;2023-02-15T05:48:18;34.95;;;20.55;;
11743;SDS011;5929;51.906;7.674;2023-02-15T05:50:55;36.13;;;21.02;;
11743;SDS011;5929;51.906;7.674;2023-02-15T05:53:23;35.08;;;20.23;;
11743;SDS011;5929;51.906;7.674;2023-02-15T05:55:50;36.55;;;19.73;;
11743;SDS011;5929;51.906;7.674;2023-02-15T05:58:16;39.15;;;22.40;;
11743;SDS011;5929;51.906;7.674;2023-02-15T06:00:43;36.20;;;21.92;;
11743;SDS011;5929;51.906;7.674;2023-02-15T06:03:11;35.70;;;21.15;;
11743;SDS011;5929;51.906;7.674;2023-02-15T06:05:38;34.30;;;20.10;;
11743;SDS011;5929;51.906;7.674;2023-02-15T06:08:05;31.17;;;18.70;;
11743;SDS011;5929;51.906;7.674;2023-02-15T06:10:32;36.05;;;20.67;;
11743;SDS011;5929;51.906;7.674;2023-02-15T06:12:59;33.63;;;20.33;;
11743;SDS011;5929;51.906;7.674;2023-02-15T06:15:25;33.05;;;19.85;;
11743;SDS011;5929;51.906;7.674;2023-02-15T06:17:52;35.80;;;20.05;;
11743;SDS011;5929;51.906;7.674;2023-02-15T06:20:20;33.42;;;20.40;;
11743;SDS011;5929;51.906;7.674;2023-02-15T06:22:47;36.08;;;19.17;;
11743;SDS011;5929;51.906;7.674;2023-02-15T06:25:14;37.50;;;20.25;;
11743;SDS011;5929;51.906;7.674;2023-02-15T06:27:41;33.67;;;21.15;;
11743;SDS011;5929;51.906;7.674;2023-02-15T06:30:09;36.38;;;21.00;;
11743;SDS011;5929;51.906;7.674;2023-02-15T06:32:37;34.20;;;20.17;;
11743;SDS011;5929;51.906;7.674;2023-02-15T06:35:05;37.97;;;20.42;;
11743;SDS011;5929;51.906;7.674;2023-02-15T06:37:34;33.40;;;19.20;;
11743;SDS011;5929;51.906;7.674;2023-02-15T06:40:00;33.50;;;19.98;;
11743;SDS011;5929;51.906;7.674;2023-02-15T06:42:29;35.03;;;19.48;;
11743;SDS011;5929;51.906;7.674;2023-02-15T06:44:56;33.72;;;20.17;;
11743;SDS011;5929;51.906;7.674;2023-02-15T06:47:24;35.08;;;20.10;;
11743;SDS011;5929;51.906;7.674;2023-02-15T06:49:50;39.45;;;20.98;;
11743;SDS011;5929;51.906;7.674;2023-02-15T06:52:17;36.05;;;20.25;;
11743;SDS011;5929;51.906;7.674;2023-02-15T06:54:45;32.95;;;19.52;;
11743;SDS011;5929;51.906;7.674;2023-02-15T06:57:12;30.50;;;19.30;;
11743;SDS011;5929;51.906;7.674;2023-02-15T06:59:39;31.17;;;18.90;;
11743;SDS011;5929;51.906;7.674;2023-02-15T07:02:06;31.08;;;19.48;;
11743;SDS011;5929;51.906;7.674;2023-02-15T07:04:34;32.88;;;18.50;;
11743;SDS011;5929;51.906;7.674;2023-02-15T07:07:01;35.33;;;20.42;;
11743;SDS011;5929;51.906;7.674;2023-02-15T07:09:28;35.30;;;19.58;;
11743;SDS011;5929;51.906;7.674;2023-02-15T07:11:56;34.75;;;20.80;;
11743;SDS011;5929;51.906;7.674;2023-02-15T07:14:43;35.00;;;20.88;;
11743;SDS011;5929;51.906;7.674;2023-02-15T07:17:10;34.50;;;20.67;;
11743;SDS011;5929;51.906;7.674;2023-02-15T07:19:37;34.50;;;19.70;;
11743;SDS011;5929;51.906;7.674;2023-02-15T07:22:03;35.35;;;20.83;;
11743;SDS011;5929;51.906;7.674;2023-02-15T07:24:30;33.95;;;19.77;;
11743;SDS011;5929;51.906;7.674;2023-02-15T07:26:59;35.50;;;19.58;;
11743;SDS011;5929;51.906;7.674;2023-02-15T07:29:25;32.92;;;19.48;;
11743;SDS011;5929;51.906;7.674;2023-02-15T07:31:52;31.45;;;18.75;;
11743;SDS011;5929;51.906;7.674;2023-02-15T07:34:19;37.60;;;20.15;;
11743;SDS011;5929;51.906;7.674;2023-02-15T07:36:46;34.75;;;20.60;;
11743;SDS011;5929;51.906;7.674;2023-02-15T07:39:13;36.53;;;20.10;;
11743;SDS011;5929;51.906;7.674;2023-02-15T07:41:39;35.80;;;20.85;;
11743;SDS011;5929;51.906;7.674;2023-02-15T07:44:10;32.47;;;20.98;;
11743;SDS011;5929;51.906;7.674;2023-02-15T07:46:38;38.70;;;20.83;;
11743;SDS011;5929;51.906;7.674;2023-02-15T07:49:05;34.47;;;20.73;;
11743;SDS011;5929;51.906;7.674;2023-02-15T07:51:31;37.13;;;21.75;;
11743;SDS011;5929;51.906;7.674;2023-02-15T07:53:58;37.60;;;21.83;;
11743;SDS011;5929;51.906;7.674;2023-02-15T07:56:25;38.55;;;20.58;;
11743;SDS011;5929;51.906;7.674;2023-02-15T07:58:52;38.13;;;22.23;;
11743;SDS011;5929;51.906;7.674;2023-02-15T08:01:22;36.08;;;22.58;;
11743;SDS011;5929;51.906;7.674;2023-02-15T08:03:50;34.75;;;22.17;;
11743;SDS011;5929;51.906;7.674;2023-02-15T08:06:17;39.35;;;23.52;;
11743;SDS011;5929;51.906;7.674;2023-02-15T08:08:44;39.75;;;23.90;;
11743;SDS011;5929;51.906;7.674;2023-02-15T08:11:15;37.90;;;22.52;;
11743;SDS011;5929;51.906;7.674;2023-02-15T08:13:59;35.33;;;22.52;;
11743;SDS011;5929;51.906;7.674;2023-02-15T08:16:31;37.08;;;22.02;;
11743;SDS011;5929;51.906;7.674;2023-02-15T08:18:59;35.88;;;23.20;;
11743;SDS011;5929;51.906;7.674;2023-02-15T08:21:28;38.58;;;23.05;;
11743;SDS011;5929;51.906;7.674;2023-02-15T08:23:56;38.15;;;23.42;;
11743;SDS011;5929;51.906;7.674;2023-02-15T08:26:23;37.45;;;23.77;;
11743;SDS011;5929;51.906;7.674;2023-02-15T08:28:51;41.25;;;23.45;;
11743;SDS011;5929;51.906;7.674;2023-02-15T08:31:19;37.88;;;22.88;;
11743;SDS011;5929;51.906;7.674;2023-02-15T08:33:48;43.13;;;24.88;;
11743;SDS011;5929;51.906;7.674;2023-02-15T08:36:17;37.70;;;23.15;;
11743;SDS011;5929;51.906;7.674;2023-02-15T08:38:45;41.75;;;24.83;;
11743;SDS011;5929;51.906;7.674;2023-02-15T08:41:13;35.88;;;24.60;;
11743;SDS011;5929;51.906;7.674;2023-02-15T08:43:41;37.90;;;24.75;;
11743;SDS011;5929;51.906;7.674;2023-02-15T08:46:09;40.92;;;24.73;;
11743;SDS011;5929;51.906;7.674;2023-02-15T08:48:36;36.42;;;23.75;;
11743;SDS011;5929;51.906;7.674;2023-02-15T08:51:05;39.05;;;23.30;;
11743;SDS011;5929;51.906;7.674;2023-02-15T08:53:35;37.97;;;23.20;;
11743;SDS011;5929;51.906;7.674;2023-02-15T08:56:03;37.63;;;23.90;;
11743;SDS011;5929;51.906;7.674;2023-02-15T08:58:31;40.35;;;25.38;;
11743;SDS011;5929;51.906;7.674;2023-02-15T09:00:58;42.75;;;23.98;;
11743;SDS011;5929;51.906;7.674;2023-02-15T09:03:27;36.03;;;23.65;;
11743;SDS011;5929;51.906;7.674;2023-02-15T09:05:58;42.13;;;23.77;;
11743;SDS011;5929;51.906;7.674;2023-02-15T09:08:30;40.17;;;24.05;;
11743;SDS011;5929;51.906;7.674;2023-02-15T09:11:04;40.22;;;24.15;;
11743;SDS011;5929;51.906;7.674;2023-02-15T09:13:38;40.25;;;25.42;;
11743;SDS011;5929;51.906;7.674;2023-02-15T09:16:06;40.80;;;25.25;;
11743;SDS011;5929;51.906;7.674;2023-02-15T09:18:36;37.38;;;23.65;;
11743;SDS011;5929;51.906;7.674;2023-02-15T09:21:04;38.05;;;24.63;;
11743;SDS011;5929;51.906;7.674;2023-02-15T09:23:34;41.78;;;25.63;;
11743;SDS011;5929;51.906;7.674;2023-02-15T09:26:01;42.90;;;26.15;;
11743;SDS011;5929;51.906;7.674;2023-02-15T09:28:30;42.90;;;26.42;;
11743;SDS011;5929;51.906;7.674;2023-02-15T09:31:03;45.22;;;27.02;;
11743;SDS011;5929;51.906;7.674;2023-02-15T09:33:32;43.92;;;27.23;;
11743;SDS011;5929;51.906;7.674;2023-02-15T09:36:00;41.30;;;26.77;;
11743;SDS011;5929;51.906;7.674;2023-02-15T09:38:27;42.33;;;26.52;;
11743;SDS011;5929;51.906;7.674;2023-02-15T09:40:56;46.92;;;27.45;;
11743;SDS011;5929;51.906;7.674;2023-02-15T09:43:37;43.10;;;27.55;;
11743;SDS011;5929;51.906;7.674;2023-02-15T09:46:16;45.42;;;27.95;;
11743;SDS011;5929;51.906;7.674;2023-02-15T09:48:53;53.17;;;29.85;;
11743;SDS011;5929;51.906;7.674;2023-02-15T09:51:34;51.05;;;29.75;;
11743;SDS011;5929;51.906;7.674;2023-02-15T09:54:21;47.53;;;30.67;;
11743;SDS011;5929;51.906;7.674;2023-02-15T09:57:02;44.58;;;28.50;;
11743;SDS011;5929;51.906;7.674;2023-02-15T09:59:38;49.83;;;29.10;;
11743;SDS011;5929;51.906;7.674;2023-02-15T10:02:20;43.65;;;26.95;;
11743;SDS011;5929;51.906;7.674;2023-02-15T10:04:59;42.80;;;26.25;;
11743;SDS011;5929;51.906;7.674;2023-02-15T10:07:44;35.70;;;23.45;;
11743;SDS011;5929;51.906;7.674;2023-02-15T10:10:24;37.15;;;23.23;;
11743;SDS011;5929;51.906;7.674;2023-02-15T10:13:03;39.38;;;24.58;;
11743;SDS011;5929;51.906;7.674;2023-02-15T10:15:45;38.50;;;24.10;;
11743;SDS011;5929;51.906;7.674;2023-02-15T10:18:36;37.53;;;23.27;;
11743;SDS011;5929;51.906;7.674;2023-02-15T10:21:15;35.45;;;22.90;;
11743;SDS011;5929;51.906;7.674;2023-02-15T10:23:53;35.03;;;21.52;;
11743;SDS011;5929;51.906;7.674;2023-02-15T10:26:43;36.38;;;22.98;;
11743;SDS011;5929;51.906;7.674;2023-02-15T10:29:16;34.85;;;22.92;;
11743;SDS011;5929;51.906;7.674;2023-02-15T10:31:55;35.15;;;21.85;;
11743;SDS011;5929;51.906;7.674;2023-02-15T10:34:28;33.70;;;21.30;;
11743;SDS011;5929;51.906;7.674;2023-02-15T10:37:10;32.58;;;20.85;;
11743;SDS011;5929;51.906;7.674;2023-02-15T10:39:52;34.72;;;21.50;;
11743;SDS011;5929;51.906;7.674;2023-02-15T10:42:29;38.38;;;22.45;;
11743;SDS011;5929;51.906;7.674;2023-02-15T10:45:09;36.58;;;21.23;;
11743;SDS011;5929;51.906;7.674;2023-02-15T10:47:48;33.80;;;20.58;;
11743;SDS011;5929;51.906;7.674;2023-02-15T10:50:29;30.50;;;20.42;;
11743;SDS011;5929;51.906;7.674;2023-02-15T10:53:13;32.78;;;21.55;;
11743;SDS011;5929;51.906;7.674;2023-02-15T10:55:58;30.77;;;20.92;;
11743;SDS011;5929;51.906;7.674;2023-02-15T10:58:34;32.88;;;21.00;;
11743;SDS011;5929;51.906;7.674;2023-02-15T11:01:15;30.48;;;20.33;;
11743;SDS011;5929;51.906;7.674;2023-02-15T11:03:54;33.58;;;20.83;;
11743;SDS011;5929;51.906;7.674;2023-02-15T11:06:35;33.33;;;20.90;;
11743;SDS011;5929;51.906;7.674;2023-02-15T11:09:07;31.60;;;20.48;;
11743;SDS011;5929;51.906;7.674;2023-02-15T11:11:38;31.58;;;20.25;;
11743;SDS011;5929;51.906;7.674;2023-02-15T11:14:10;30.23;;;20.38;;
11743;SDS011;5929;51.906;7.674;2023-02-15T11:16:43;35.85;;;18.63;;
11743;SDS011;5929;51.906;7.674;2023-02-15T11:19:13;28.63;;;18.42;;
11743;SDS011;5929;51.906;7.674;2023-02-15T11:21:48;29.00;;;17.95;;
11743;SDS011;5929;51.906;7.674;2023-02-15T11:24:19;28.13;;;19.55;;
11743;SDS011;5929;51.906;7.674;2023-02-15T11:26:48;28.17;;;18.45;;
11743;SDS011;5929;51.906;7.674;2023-02-15T11:29:21;26.88;;;18.65;;
11743;SDS011;5929;51.906;7.674;2023-02-15T11:31:54;29.40;;;19.10;;
11743;SDS011;5929;51.906;7.674;2023-02-15T11:34:26;27.25;;;18.63;;
11743;SDS011;5929;51.906;7.674;2023-02-15T11:36:58;30.52;;;19.92;;
11743;SDS011;5929;51.906;7.674;2023-02-15T11:39:31;24.55;;;18.02;;
11743;SDS011;5929;51.906;7.674;2023-02-15T11:42:00;24.95;;;17.48;;
11743;SDS011;5929;51.906;7.674;2023-02-15T11:44:31;25.77;;;18.65;;
11743;SDS011;5929;51.906;7.674;2023-02-15T11:47:02;25.23;;;19.25;;
11743;SDS011;5929;51.906;7.674;2023-02-15T11:49:34;26.30;;;18.63;;
11743;SDS011;5929;51.906;7.674;2023-02-15T11:52:02;30.63;;;19.77;;
11743;SDS011;5929;51.906;7.674;2023-02-15T11:54:33;26.27;;;19.00;;
11743;SDS011;5929;51.906;7.674;2023-02-15T11:57:05;29.40;;;20.92;;
11743;SDS011;5929;51.906;7.674;2023-02-15T11:59:40;28.25;;;19.25;;
11743;SDS011;5929;51.906;7.674;2023-02-15T12:02:16;27.52;;;18.30;;
11743;SDS011;5929;51.906;7.674;2023-02-15T12:04:46;30.23;;;20.55;;
11743;SDS011;5929;51.906;7.674;2023-02-15T12:07:18;26.92;;;19.27;;
11743;SDS011;5929;51.906;7.674;2023-02-15T12:09:51;28.98;;;19.58;;
11743;SDS011;5929;51.906;7.674;2023-02-15T12:12:26;29.75;;;20.23;;
11743;SDS011;5929;51.906;7.674;2023-02-15T12:14:54;25.77;;;19.80;;
11743;SDS011;5929;51.906;7.674;2023-02-15T12:17:24;28.98;;;20.10;;
11743;SDS011;5929;51.906;7.674;2023-02-15T12:19:55;28.77;;;20.15;;
11743;SDS011;5929;51.906;7.674;2023-02-15T12:22:24;30.52;;;22.75;;
11743;SDS011;5929;51.906;7.674;2023-02-15T12:24:54;28.20;;;20.35;;
11743;SDS011;5929;51.906;7.674;2023-02-15T12:27:23;25.77;;;19.70;;
11743;SDS011;5929;51.906;7.674;2023-02-15T12:29:53;25.52;;;20.05;;
11743;SDS011;5929;51.906;7.674;2023-02-15T12:32:26;29.25;;;20.60;;
11743;SDS011;5929;51.906;7.674;2023-02-15T12:34:55;30.73;;;20.80;;
11743;SDS011;5929;51.906;7.674;2023-02-15T12:37:28;27.88;;;20.60;;
11743;SDS011;5929;51.906;7.674;2023-02-15T12:39:57;27.92;;;19.65;;
11743;SDS011;5929;51.906;7.674;2023-02-15T12:42:25;28.38;;;20.20;;
11743;SDS011;5929;51.906;7.674;2023-02-15T12:44:55;24.52;;;18.05;;
11743;SDS011;5929;51.906;7.674;2023-02-15T12:47:25;26.88;;;21.20;;
11743;SDS011;5929;51.906;7.674;2023-02-15T12:50:05;28.67;;;21.27;;
11743;SDS011;5929;51.906;7.674;2023-02-15T12:52:41;29.92;;;18.73;;
11743;SDS011;5929;51.906;7.674;2023-02-15T12:55:18;27.17;;;19.90;;
11743;SDS011;5929;51.906;7.674;2023-02-15T12:57:48;27.08;;;19.67;;
11743;SDS011;5929;51.906;7.674;2023-02-15T13:00:25;27.02;;;18.73;;
11743;SDS011;5929;51.906;7.674;2023-02-15T13:02:58;28.52;;;19.60;;
11743;SDS011;5929;51.906;7.674;2023-02-15T13:05:28;26.85;;;19.73;;
11743;SDS011;5929;51.906;7.674;2023-02-15T13:08:00;32.85;;;20.30;;
11743;SDS011;5929;51.906;7.674;2023-02-15T13:10:31;24.85;;;17.95;;
11743;SDS011;5929;51.906;7.674;2023-02-15T13:13:08;28.38;;;19.42;;
11743;SDS011;5929;51.906;7.674;2023-02-15T13:15:37;27.73;;;18.45;;
11743;SDS011;5929;51.906;7.674;2023-02-15T13:18:10;26.25;;;18.95;;
11743;SDS011;5929;51.906;7.674;2023-02-15T13:20:40;27.58;;;19.38;;
11743;SDS011;5929;51.906;7.674;2023-02-15T13:23:13;25.42;;;17.95;;
11743;SDS011;5929;51.906;7.674;2023-02-15T13:25:49;28.55;;;19.55;;
11743;SDS011;5929;51.906;7.674;2023-02-15T13:28:17;24.73;;;18.27;;
11743;SDS011;5929;51.906;7.674;2023-02-15T13:30:48;28.05;;;18.30;;
11743;SDS011;5929;51.906;7.674;2023-02-15T13:33:19;30.08;;;18.17;;
11743;SDS011;5929;51.906;7.674;2023-02-15T13:35:55;29.55;;;19.17;;
11743;SDS011;5929;51.906;7.674;2023-02-15T13:38:35;29.52;;;19.20;;
11743;SDS011;5929;51.906;7.674;2023-02-15T13:41:12;32.33;;;19.45;;
11743;SDS011;5929;51.906;7.674;2023-02-15T13:43:46;27.05;;;17.80;;
11743;SDS011;5929;51.906;7.674;2023-02-15T13:46:23;26.30;;;17.92;;
11743;SDS011;5929;51.906;7.674;2023-02-15T13:49:07;30.27;;;17.95;;
11743;SDS011;5929;51.906;7.674;2023-02-15T13:51:43;29.10;;;18.10;;
11743;SDS011;5929;51.906;7.674;2023-02-15T13:54:21;29.27;;;17.67;;
11743;SDS011;5929;51.906;7.674;2023-02-15T13:57:16;26.80;;;17.77;;
11743;SDS011;5929;51.906;7.674;2023-02-15T14:00:08;27.25;;;17.60;;
11743;SDS011;5929;51.906;7.674;2023-02-15T14:02:54;29.13;;;16.45;;
11743;SDS011;5929;51.906;7.674;2023-02-15T14:05:59;26.52;;;16.65;;
11743;SDS011;5929;51.906;7.674;2023-02-15T14:08:39;28.85;;;17.55;;
11743;SDS011;5929;51.906;7.674;2023-02-15T14:11:19;27.65;;;17.58;;
11743;SDS011;5929;51.906;7.674;2023-02-15T14:13:56;27.55;;;17.50;;
11743;SDS011;5929;51.906;7.674;2023-02-15T14:16:41;27.50;;;17.42;;
11743;SDS011;5929;51.906;7.674;2023-02-15T14:19:16;26.23;;;16.60;;
11743;SDS011;5929;51.906;7.674;2023-02-15T14:21:51;28.83;;;16.65;;
11743;SDS011;5929;51.906;7.674;2023-02-15T14:24:29;30.25;;;17.55;;
11743;SDS011;5929;51.906;7.674;2023-02-15T14:27:03;29.88;;;18.23;;
11743;SDS011;5929;51.906;7.674;2023-02-15T14:29:42;28.95;;;17.30;;
11743;SDS011;5929;51.906;7.674;2023-02-15T14:32:18;29.67;;;16.88;;
11743;SDS011;5929;51.906;7.674;2023-02-15T14:34:50;29.75;;;17.77;;
11743;SDS011;5929;51.906;7.674;2023-02-15T14:37:22;32.03;;;17.08;;
11743;SDS011;5929;51.906;7.674;2023-02-15T14:39:59;30.73;;;16.92;;
11743;SDS011;5929;51.906;7.674;2023-02-15T14:42:49;32.22;;;17.83;;
11743;SDS011;5929;51.906;7.674;2023-02-15T14:45:24;29.48;;;17.33;;
11743;SDS011;5929;51.906;7.674;2023-02-15T14:47:59;28.95;;;16.92;;
11743;SDS011;5929;51.906;7.674;2023-02-15T14:50:45;28.77;;;16.13;;
11743;SDS011;5929;51.906;7.674;2023-02-15T14:53:24;28.25;;;17.20;;
11743;SDS011;5929;51.906;7.674;2023-02-15T14:58:54;28.90;;;17.38;;
11743;SDS011;5929;51.906;7.674;2023-02-15T15:01:25;24.88;;;15.00;;
11743;SDS011;5929;51.906;7.674;2023-02-15T15:03:54;25.75;;;16.15;;
11743;SDS011;5929;51.906;7.674;2023-02-15T15:06:25;27.92;;;16.13;;